sensor_id;sensor_type;location;lat;lon;timestamp;P1;durP1;ratioP1;P2;durP2;ratioP2
41661;SDS011;27351;45.992;12.666;2024-02-23T00:00:02;19.90;;;9.23;;
41661;SDS011;27351;45.992;12.666;2024-02-23T00:02:31;19.70;;;9.52;;
41661;SDS011;27351;45.992;12.666;2024-02-23T00:04:57;17.70;;;9.52;;
41661;SDS011;27351;45.992;12.666;2024-02-23T00:07:22;19.83;;;9.60;;
41661;SDS011;27351;45.992;12.666;2024-02-23T00:09:48;15.97;;;8.27;;
41661;SDS011;27351;45.992;12.666;2024-02-23T00:12:13;18.10;;;9.33;;
41661;SDS011;27351;45.992;12.666;2024-02-23T00:14:39;17.30;;;8.80;;
41661;SDS011;27351;45.992;12.666;2024-02-23T00:17:05;20.90;;;9.27;;
41661;SDS011;27351;45.992;12.666;2024-02-23T00:19:31;16.98;;;9.20;;
41661;SDS011;27351;45.992;12.666;2024-02-23T00:21:57;16.90;;;9.13;;
41661;SDS011;27351;45.992;12.666;2024-02-23T00:24:27;16.20;;;7.97;;
41661;SDS011;27351;45.992;12.666;2024-02-23T00:26:53;16.77;;;9.07;;
41661;SDS011;27351;45.992;12.666;2024-02-23T00:29:19;16.70;;;8.50;;
41661;SDS011;27351;45.992;12.666;2024-02-23T00:31:45;17.20;;;8.47;;
41661;SDS011;27351;45.992;12.666;2024-02-23T00:34:10;16.53;;;8.77;;
41661;SDS011;27351;45.992;12.666;2024-02-23T00:36:41;17.23;;;9.20;;
41661;SDS011;27351;45.992;12.666;2024-02-23T00:39:07;17.10;;;9.23;;
41661;SDS011;27351;45.992;12.666;2024-02-23T00:41:33;16.40;;;8.50;;
41661;SDS011;27351;45.992;12.666;2024-02-23T00:43:59;17.15;;;8.38;;
41661;SDS011;27351;45.992;12.666;2024-02-23T00:46:25;16.83;;;8.32;;
41661;SDS011;27351;45.992;12.666;2024-02-23T00:48:50;15.60;;;8.43;;
41661;SDS011;27351;45.992;12.666;2024-02-23T00:51:16;16.80;;;8.82;;
41661;SDS011;27351;45.992;12.666;2024-02-23T00:53:41;17.88;;;8.88;;
41661;SDS011;27351;45.992;12.666;2024-02-23T00:56:07;16.80;;;9.00;;
41661;SDS011;27351;45.992;12.666;2024-02-23T00:58:32;17.80;;;8.47;;
41661;SDS011;27351;45.992;12.666;2024-02-23T01:00:59;14.70;;;8.30;;
41661;SDS011;27351;45.992;12.666;2024-02-23T01:03:24;15.38;;;8.77;;
41661;SDS011;27351;45.992;12.666;2024-02-23T01:05:50;14.57;;;7.78;;
41661;SDS011;27351;45.992;12.666;2024-02-23T01:08:15;17.52;;;8.63;;
41661;SDS011;27351;45.992;12.666;2024-02-23T01:10:41;15.13;;;8.77;;
41661;SDS011;27351;45.992;12.666;2024-02-23T01:13:06;16.10;;;8.90;;
41661;SDS011;27351;45.992;12.666;2024-02-23T01:15:32;16.55;;;8.25;;
41661;SDS011;27351;45.992;12.666;2024-02-23T01:17:58;13.82;;;7.15;;
41661;SDS011;27351;45.992;12.666;2024-02-23T01:20:23;15.73;;;8.17;;
41661;SDS011;27351;45.992;12.666;2024-02-23T01:22:49;14.40;;;7.93;;
41661;SDS011;27351;45.992;12.666;2024-02-23T01:25:14;14.87;;;7.77;;
41661;SDS011;27351;45.992;12.666;2024-02-23T01:27:41;14.63;;;8.15;;
41661;SDS011;27351;45.992;12.666;2024-02-23T01:30:07;15.25;;;8.10;;
41661;SDS011;27351;45.992;12.666;2024-02-23T01:32:32;14.97;;;8.13;;
41661;SDS011;27351;45.992;12.666;2024-02-23T01:34:58;13.13;;;7.60;;
41661;SDS011;27351;45.992;12.666;2024-02-23T01:37:24;15.00;;;8.60;;
41661;SDS011;27351;45.992;12.666;2024-02-23T01:39:49;14.47;;;7.80;;
41661;SDS011;27351;45.992;12.666;2024-02-23T01:42:15;14.30;;;8.60;;
41661;SDS011;27351;45.992;12.666;2024-02-23T01:44:40;13.87;;;7.63;;
41661;SDS011;27351;45.992;12.666;2024-02-23T01:47:06;13.37;;;7.53;;
41661;SDS011;27351;45.992;12.666;2024-02-23T01:49:32;12.80;;;6.97;;
41661;SDS011;27351;45.992;12.666;2024-02-23T01:51:59;14.27;;;7.43;;
41661;SDS011;27351;45.992;12.666;2024-02-23T01:54:25;14.23;;;6.93;;
41661;SDS011;27351;45.992;12.666;2024-02-23T01:56:51;13.80;;;7.47;;
41661;SDS011;27351;45.992;12.666;2024-02-23T01:59:17;11.65;;;6.32;;
41661;SDS011;27351;45.992;12.666;2024-02-23T02:01:43;12.68;;;7.03;;
41661;SDS011;27351;45.992;12.666;2024-02-23T02:04:09;13.32;;;7.25;;
41661;SDS011;27351;45.992;12.666;2024-02-23T02:06:35;13.40;;;7.27;;
41661;SDS011;27351;45.992;12.666;2024-02-23T02:09:01;12.43;;;6.87;;
41661;SDS011;27351;45.992;12.666;2024-02-23T02:11:27;14.82;;;7.07;;
41661;SDS011;27351;45.992;12.666;2024-02-23T02:13:52;12.95;;;7.05;;
41661;SDS011;27351;45.992;12.666;2024-02-23T02:16:18;14.27;;;7.30;;
41661;SDS011;27351;45.992;12.666;2024-02-23T02:18:43;15.20;;;7.03;;
41661;SDS011;27351;45.992;12.666;2024-02-23T02:21:14;13.73;;;7.10;;
41661;SDS011;27351;45.992;12.666;2024-02-23T02:23:39;13.10;;;6.90;;
41661;SDS011;27351;45.992;12.666;2024-02-23T02:26:05;13.65;;;7.00;;
41661;SDS011;27351;45.992;12.666;2024-02-23T02:28:31;14.70;;;7.53;;
41661;SDS011;27351;45.992;12.666;2024-02-23T02:30:56;13.53;;;6.97;;
41661;SDS011;27351;45.992;12.666;2024-02-23T02:33:22;10.93;;;6.03;;
41661;SDS011;27351;45.992;12.666;2024-02-23T02:35:48;11.60;;;5.93;;
41661;SDS011;27351;45.992;12.666;2024-02-23T02:38:15;13.13;;;6.15;;
41661;SDS011;27351;45.992;12.666;2024-02-23T02:40:40;12.23;;;5.97;;
41661;SDS011;27351;45.992;12.666;2024-02-23T02:43:06;11.43;;;6.07;;
41661;SDS011;27351;45.992;12.666;2024-02-23T02:45:32;10.55;;;5.78;;
41661;SDS011;27351;45.992;12.666;2024-02-23T02:47:59;9.60;;;5.40;;
41661;SDS011;27351;45.992;12.666;2024-02-23T02:50:25;11.53;;;5.50;;
41661;SDS011;27351;45.992;12.666;2024-02-23T02:52:50;10.43;;;5.10;;
41661;SDS011;27351;45.992;12.666;2024-02-23T02:55:16;10.38;;;5.15;;
41661;SDS011;27351;45.992;12.666;2024-02-23T02:57:43;9.48;;;4.78;;
41661;SDS011;27351;45.992;12.666;2024-02-23T03:00:09;9.03;;;4.53;;
41661;SDS011;27351;45.992;12.666;2024-02-23T03:02:35;9.35;;;4.50;;
41661;SDS011;27351;45.992;12.666;2024-02-23T03:05:01;9.53;;;3.60;;
41661;SDS011;27351;45.992;12.666;2024-02-23T03:07:26;9.23;;;4.82;;
41661;SDS011;27351;45.992;12.666;2024-02-23T03:09:52;8.05;;;3.90;;
41661;SDS011;27351;45.992;12.666;2024-02-23T03:12:18;7.28;;;4.18;;
41661;SDS011;27351;45.992;12.666;2024-02-23T03:14:44;7.40;;;3.58;;
41661;SDS011;27351;45.992;12.666;2024-02-23T03:17:09;8.55;;;4.00;;
41661;SDS011;27351;45.992;12.666;2024-02-23T03:19:35;8.20;;;3.87;;
41661;SDS011;27351;45.992;12.666;2024-02-23T03:22:01;7.03;;;3.50;;
41661;SDS011;27351;45.992;12.666;2024-02-23T03:24:27;8.25;;;3.88;;
41661;SDS011;27351;45.992;12.666;2024-02-23T03:26:52;8.38;;;3.83;;
41661;SDS011;27351;45.992;12.666;2024-02-23T03:29:18;6.88;;;3.50;;
41661;SDS011;27351;45.992;12.666;2024-02-23T03:31:43;8.60;;;4.07;;
41661;SDS011;27351;45.992;12.666;2024-02-23T03:34:09;7.25;;;3.30;;
41661;SDS011;27351;45.992;12.666;2024-02-23T03:36:34;6.70;;;3.03;;
41661;SDS011;27351;45.992;12.666;2024-02-23T03:39:02;5.57;;;2.95;;
41661;SDS011;27351;45.992;12.666;2024-02-23T03:41:27;6.30;;;2.73;;
41661;SDS011;27351;45.992;12.666;2024-02-23T03:43:53;6.37;;;2.70;;
41661;SDS011;27351;45.992;12.666;2024-02-23T03:46:19;5.53;;;3.03;;
41661;SDS011;27351;45.992;12.666;2024-02-23T03:48:45;8.23;;;2.78;;
41661;SDS011;27351;45.992;12.666;2024-02-23T03:51:11;5.97;;;2.85;;
41661;SDS011;27351;45.992;12.666;2024-02-23T03:53:36;6.67;;;2.80;;
41661;SDS011;27351;45.992;12.666;2024-02-23T03:56:02;5.03;;;2.42;;
41661;SDS011;27351;45.992;12.666;2024-02-23T03:58:28;5.60;;;2.50;;
41661;SDS011;27351;45.992;12.666;2024-02-23T04:00:53;6.47;;;2.90;;
41661;SDS011;27351;45.992;12.666;2024-02-23T04:03:19;7.43;;;3.00;;
41661;SDS011;27351;45.992;12.666;2024-02-23T04:05:44;6.00;;;2.60;;
41661;SDS011;27351;45.992;12.666;2024-02-23T04:08:10;5.65;;;2.58;;
41661;SDS011;27351;45.992;12.666;2024-02-23T04:10:36;9.75;;;2.72;;
41661;SDS011;27351;45.992;12.666;2024-02-23T04:13:01;4.18;;;2.20;;
41661;SDS011;27351;45.992;12.666;2024-02-23T04:15:27;5.85;;;2.60;;
41661;SDS011;27351;45.992;12.666;2024-02-23T04:17:53;4.70;;;2.22;;
41661;SDS011;27351;45.992;12.666;2024-02-23T04:20:18;7.05;;;2.80;;
41661;SDS011;27351;45.992;12.666;2024-02-23T04:22:44;5.50;;;2.17;;
41661;SDS011;27351;45.992;12.666;2024-02-23T04:25:10;6.13;;;2.28;;
41661;SDS011;27351;45.992;12.666;2024-02-23T04:27:35;4.95;;;2.30;;
41661;SDS011;27351;45.992;12.666;2024-02-23T04:30:01;6.25;;;2.80;;
41661;SDS011;27351;45.992;12.666;2024-02-23T04:32:27;6.32;;;2.40;;
41661;SDS011;27351;45.992;12.666;2024-02-23T04:34:53;4.85;;;2.58;;
41661;SDS011;27351;45.992;12.666;2024-02-23T04:37:18;6.80;;;2.65;;
41661;SDS011;27351;45.992;12.666;2024-02-23T04:39:44;5.93;;;2.80;;
41661;SDS011;27351;45.992;12.666;2024-02-23T04:42:10;5.47;;;2.70;;
41661;SDS011;27351;45.992;12.666;2024-02-23T04:44:35;6.77;;;2.30;;
41661;SDS011;27351;45.992;12.666;2024-02-23T04:47:01;6.18;;;2.67;;
41661;SDS011;27351;45.992;12.666;2024-02-23T04:49:27;10.50;;;2.22;;
41661;SDS011;27351;45.992;12.666;2024-02-23T04:51:53;6.80;;;2.72;;
41661;SDS011;27351;45.992;12.666;2024-02-23T04:54:18;6.50;;;2.53;;
41661;SDS011;27351;45.992;12.666;2024-02-23T04:56:44;6.35;;;2.78;;
41661;SDS011;27351;45.992;12.666;2024-02-23T04:59:09;7.93;;;2.70;;
41661;SDS011;27351;45.992;12.666;2024-02-23T05:01:35;5.65;;;2.72;;
41661;SDS011;27351;45.992;12.666;2024-02-23T05:04:02;5.07;;;2.72;;
41661;SDS011;27351;45.992;12.666;2024-02-23T05:06:29;5.40;;;2.55;;
41661;SDS011;27351;45.992;12.666;2024-02-23T05:08:54;5.10;;;2.28;;
41661;SDS011;27351;45.992;12.666;2024-02-23T05:11:20;6.67;;;2.77;;
41661;SDS011;27351;45.992;12.666;2024-02-23T05:13:45;7.27;;;2.67;;
41661;SDS011;27351;45.992;12.666;2024-02-23T05:16:11;7.53;;;2.42;;
41661;SDS011;27351;45.992;12.666;2024-02-23T05:18:38;4.55;;;2.28;;
41661;SDS011;27351;45.992;12.666;2024-02-23T05:21:04;5.07;;;2.53;;
41661;SDS011;27351;45.992;12.666;2024-02-23T05:23:30;12.05;;;3.20;;
41661;SDS011;27351;45.992;12.666;2024-02-23T05:25:55;6.87;;;3.23;;
41661;SDS011;27351;45.992;12.666;2024-02-23T05:28:21;7.23;;;2.73;;
41661;SDS011;27351;45.992;12.666;2024-02-23T05:30:47;7.72;;;2.65;;
41661;SDS011;27351;45.992;12.666;2024-02-23T05:33:12;7.70;;;2.63;;
41661;SDS011;27351;45.992;12.666;2024-02-23T05:35:38;7.85;;;2.47;;
41661;SDS011;27351;45.992;12.666;2024-02-23T05:38:03;7.22;;;2.45;;
41661;SDS011;27351;45.992;12.666;2024-02-23T05:40:31;6.57;;;2.75;;
41661;SDS011;27351;45.992;12.666;2024-02-23T05:42:58;5.22;;;2.83;;
41661;SDS011;27351;45.992;12.666;2024-02-23T05:45:23;5.80;;;2.90;;
41661;SDS011;27351;45.992;12.666;2024-02-23T05:47:49;6.43;;;3.10;;
41661;SDS011;27351;45.992;12.666;2024-02-23T05:50:15;8.53;;;2.53;;
41661;SDS011;27351;45.992;12.666;2024-02-23T05:52:40;7.37;;;3.07;;
41661;SDS011;27351;45.992;12.666;2024-02-23T05:55:06;5.87;;;2.67;;
41661;SDS011;27351;45.992;12.666;2024-02-23T05:57:32;7.40;;;2.90;;
41661;SDS011;27351;45.992;12.666;2024-02-23T05:59:58;7.00;;;2.83;;
41661;SDS011;27351;45.992;12.666;2024-02-23T06:02:24;4.90;;;2.57;;
41661;SDS011;27351;45.992;12.666;2024-02-23T06:05:15;5.77;;;2.50;;
41661;SDS011;27351;45.992;12.666;2024-02-23T06:07:40;9.57;;;2.88;;
41661;SDS011;27351;45.992;12.666;2024-02-23T06:10:06;6.00;;;2.85;;
41661;SDS011;27351;45.992;12.666;2024-02-23T06:12:32;7.50;;;2.70;;
41661;SDS011;27351;45.992;12.666;2024-02-23T06:14:57;5.95;;;2.78;;
41661;SDS011;27351;45.992;12.666;2024-02-23T06:17:23;5.07;;;2.55;;
41661;SDS011;27351;45.992;12.666;2024-02-23T06:19:49;7.82;;;2.95;;
41661;SDS011;27351;45.992;12.666;2024-02-23T06:22:15;7.28;;;2.92;;
41661;SDS011;27351;45.992;12.666;2024-02-23T06:24:46;7.88;;;3.58;;
41661;SDS011;27351;45.992;12.666;2024-02-23T06:27:12;6.10;;;3.00;;
41661;SDS011;27351;45.992;12.666;2024-02-23T06:29:38;6.47;;;2.83;;
41661;SDS011;27351;45.992;12.666;2024-02-23T06:32:03;7.13;;;2.43;;
41661;SDS011;27351;45.992;12.666;2024-02-23T06:34:29;5.82;;;2.33;;
41661;SDS011;27351;45.992;12.666;2024-02-23T06:36:55;6.35;;;2.67;;
41661;SDS011;27351;45.992;12.666;2024-02-23T06:39:21;5.55;;;2.80;;
41661;SDS011;27351;45.992;12.666;2024-02-23T06:41:46;7.20;;;3.00;;
41661;SDS011;27351;45.992;12.666;2024-02-23T06:44:12;5.22;;;2.47;;
41661;SDS011;27351;45.992;12.666;2024-02-23T06:46:37;6.90;;;2.60;;
41661;SDS011;27351;45.992;12.666;2024-02-23T06:49:03;4.97;;;2.42;;
41661;SDS011;27351;45.992;12.666;2024-02-23T06:51:31;6.15;;;2.72;;
41661;SDS011;27351;45.992;12.666;2024-02-23T06:53:56;5.45;;;2.60;;
41661;SDS011;27351;45.992;12.666;2024-02-23T06:56:22;5.72;;;2.55;;
41661;SDS011;27351;45.992;12.666;2024-02-23T06:58:48;6.32;;;2.80;;
41661;SDS011;27351;45.992;12.666;2024-02-23T07:01:13;5.03;;;2.50;;
41661;SDS011;27351;45.992;12.666;2024-02-23T07:03:39;6.97;;;2.53;;
41661;SDS011;27351;45.992;12.666;2024-02-23T07:06:06;6.45;;;2.45;;
41661;SDS011;27351;45.992;12.666;2024-02-23T07:08:32;5.63;;;2.50;;
41661;SDS011;27351;45.992;12.666;2024-02-23T07:10:57;6.00;;;2.23;;
41661;SDS011;27351;45.992;12.666;2024-02-23T07:13:23;5.03;;;2.37;;
41661;SDS011;27351;45.992;12.666;2024-02-23T07:15:48;4.80;;;1.90;;
41661;SDS011;27351;45.992;12.666;2024-02-23T07:18:14;5.00;;;2.30;;
41661;SDS011;27351;45.992;12.666;2024-02-23T07:20:41;4.53;;;1.88;;
41661;SDS011;27351;45.992;12.666;2024-02-23T07:23:07;3.22;;;1.70;;
41661;SDS011;27351;45.992;12.666;2024-02-23T07:25:32;4.50;;;2.10;;
41661;SDS011;27351;45.992;12.666;2024-02-23T07:27:58;6.70;;;2.78;;
41661;SDS011;27351;45.992;12.666;2024-02-23T07:30:24;4.87;;;2.00;;
41661;SDS011;27351;45.992;12.666;2024-02-23T07:32:50;6.32;;;2.33;;
41661;SDS011;27351;45.992;12.666;2024-02-23T07:35:15;4.80;;;2.03;;
41661;SDS011;27351;45.992;12.666;2024-02-23T07:37:41;5.17;;;2.03;;
41661;SDS011;27351;45.992;12.666;2024-02-23T07:40:07;6.47;;;2.07;;
41661;SDS011;27351;45.992;12.666;2024-02-23T07:42:33;6.95;;;2.00;;
41661;SDS011;27351;45.992;12.666;2024-02-23T07:45:02;5.30;;;1.90;;
41661;SDS011;27351;45.992;12.666;2024-02-23T07:47:29;4.22;;;2.00;;
41661;SDS011;27351;45.992;12.666;2024-02-23T07:49:55;4.57;;;2.17;;
41661;SDS011;27351;45.992;12.666;2024-02-23T07:52:21;5.90;;;2.53;;
41661;SDS011;27351;45.992;12.666;2024-02-23T07:54:50;5.22;;;2.70;;
41661;SDS011;27351;45.992;12.666;2024-02-23T07:57:17;3.63;;;1.88;;
41661;SDS011;27351;45.992;12.666;2024-02-23T07:59:43;5.57;;;2.55;;
41661;SDS011;27351;45.992;12.666;2024-02-23T08:02:08;4.78;;;2.13;;
41661;SDS011;27351;45.992;12.666;2024-02-23T08:04:34;5.28;;;1.75;;
41661;SDS011;27351;45.992;12.666;2024-02-23T08:07:00;6.85;;;2.15;;
41661;SDS011;27351;45.992;12.666;2024-02-23T08:09:25;3.92;;;1.77;;
41661;SDS011;27351;45.992;12.666;2024-02-23T08:11:51;4.60;;;1.90;;
41661;SDS011;27351;45.992;12.666;2024-02-23T08:14:16;5.38;;;1.90;;
41661;SDS011;27351;45.992;12.666;2024-02-23T08:16:42;3.28;;;1.70;;
41661;SDS011;27351;45.992;12.666;2024-02-23T08:19:08;5.47;;;2.08;;
41661;SDS011;27351;45.992;12.666;2024-02-23T08:21:33;4.13;;;1.63;;
41661;SDS011;27351;45.992;12.666;2024-02-23T08:23:59;2.95;;;1.80;;
41661;SDS011;27351;45.992;12.666;2024-02-23T08:26:24;4.00;;;1.52;;
41661;SDS011;27351;45.992;12.666;2024-02-23T08:28:50;3.95;;;1.90;;
41661;SDS011;27351;45.992;12.666;2024-02-23T08:31:16;3.72;;;1.63;;
41661;SDS011;27351;45.992;12.666;2024-02-23T08:33:42;3.28;;;1.40;;
41661;SDS011;27351;45.992;12.666;2024-02-23T08:36:07;3.23;;;1.60;;
41661;SDS011;27351;45.992;12.666;2024-02-23T08:38:33;3.08;;;1.70;;
41661;SDS011;27351;45.992;12.666;2024-02-23T08:40:59;3.05;;;1.50;;
41661;SDS011;27351;45.992;12.666;2024-02-23T08:43:24;2.78;;;1.40;;
41661;SDS011;27351;45.992;12.666;2024-02-23T08:45:50;3.10;;;1.40;;
41661;SDS011;27351;45.992;12.666;2024-02-23T08:48:16;2.85;;;1.33;;
41661;SDS011;27351;45.992;12.666;2024-02-23T08:50:42;4.50;;;1.63;;
41661;SDS011;27351;45.992;12.666;2024-02-23T08:53:08;3.43;;;1.50;;
41661;SDS011;27351;45.992;12.666;2024-02-23T08:55:34;4.13;;;1.70;;
41661;SDS011;27351;45.992;12.666;2024-02-23T08:58:00;5.30;;;1.60;;
41661;SDS011;27351;45.992;12.666;2024-02-23T09:00:25;3.90;;;1.87;;
41661;SDS011;27351;45.992;12.666;2024-02-23T09:02:51;4.30;;;1.70;;
41661;SDS011;27351;45.992;12.666;2024-02-23T09:05:17;5.50;;;1.77;;
41661;SDS011;27351;45.992;12.666;2024-02-23T09:07:42;3.28;;;1.60;;
41661;SDS011;27351;45.992;12.666;2024-02-23T09:10:08;3.53;;;1.88;;
41661;SDS011;27351;45.992;12.666;2024-02-23T09:12:34;4.97;;;2.08;;
41661;SDS011;27351;45.992;12.666;2024-02-23T09:14:59;3.85;;;1.35;;
41661;SDS011;27351;45.992;12.666;2024-02-23T09:17:25;3.80;;;1.80;;
41661;SDS011;27351;45.992;12.666;2024-02-23T09:19:51;3.90;;;1.58;;
41661;SDS011;27351;45.992;12.666;2024-02-23T09:22:16;5.47;;;2.20;;
41661;SDS011;27351;45.992;12.666;2024-02-23T09:24:42;5.20;;;1.80;;
41661;SDS011;27351;45.992;12.666;2024-02-23T09:27:08;5.00;;;1.85;;
41661;SDS011;27351;45.992;12.666;2024-02-23T09:29:34;7.20;;;2.10;;
41661;SDS011;27351;45.992;12.666;2024-02-23T09:32:00;3.78;;;2.00;;
41661;SDS011;27351;45.992;12.666;2024-02-23T09:34:25;6.03;;;2.10;;
41661;SDS011;27351;45.992;12.666;2024-02-23T09:36:51;4.65;;;2.00;;
41661;SDS011;27351;45.992;12.666;2024-02-23T09:39:17;6.40;;;2.80;;
41661;SDS011;27351;45.992;12.666;2024-02-23T09:41:42;6.60;;;2.20;;
41661;SDS011;27351;45.992;12.666;2024-02-23T09:44:09;4.63;;;2.37;;
41661;SDS011;27351;45.992;12.666;2024-02-23T09:46:38;7.82;;;2.25;;
41661;SDS011;27351;45.992;12.666;2024-02-23T09:49:04;4.93;;;1.88;;
41661;SDS011;27351;45.992;12.666;2024-02-23T09:51:32;8.35;;;2.17;;
41661;SDS011;27351;45.992;12.666;2024-02-23T09:53:59;5.32;;;2.08;;
41661;SDS011;27351;45.992;12.666;2024-02-23T09:56:25;7.68;;;2.45;;
41661;SDS011;27351;45.992;12.666;2024-02-23T09:58:52;7.63;;;2.00;;
41661;SDS011;27351;45.992;12.666;2024-02-23T10:01:19;4.93;;;2.20;;
41661;SDS011;27351;45.992;12.666;2024-02-23T10:03:47;5.13;;;2.30;;
41661;SDS011;27351;45.992;12.666;2024-02-23T10:06:13;4.88;;;2.13;;
41661;SDS011;27351;45.992;12.666;2024-02-23T10:08:38;3.35;;;1.67;;
41661;SDS011;27351;45.992;12.666;2024-02-23T10:11:04;5.38;;;2.13;;
41661;SDS011;27351;45.992;12.666;2024-02-23T10:13:30;7.13;;;2.37;;
41661;SDS011;27351;45.992;12.666;2024-02-23T10:15:56;6.70;;;2.78;;
41661;SDS011;27351;45.992;12.666;2024-02-23T10:18:22;6.70;;;2.05;;
41661;SDS011;27351;45.992;12.666;2024-02-23T10:20:47;5.32;;;2.03;;
41661;SDS011;27351;45.992;12.666;2024-02-23T10:23:13;5.78;;;2.22;;
41661;SDS011;27351;45.992;12.666;2024-02-23T10:25:39;6.63;;;2.08;;
41661;SDS011;27351;45.992;12.666;2024-02-23T10:28:05;6.68;;;2.15;;
41661;SDS011;27351;45.992;12.666;2024-02-23T10:30:31;4.45;;;1.95;;
41661;SDS011;27351;45.992;12.666;2024-02-23T10:32:57;4.63;;;2.13;;
41661;SDS011;27351;45.992;12.666;2024-02-23T10:35:23;7.30;;;2.55;;
41661;SDS011;27351;45.992;12.666;2024-02-23T10:37:49;5.70;;;2.07;;
41661;SDS011;27351;45.992;12.666;2024-02-23T10:40:19;7.80;;;2.30;;
41661;SDS011;27351;45.992;12.666;2024-02-23T10:42:45;4.85;;;2.00;;
41661;SDS011;27351;45.992;12.666;2024-02-23T10:45:17;7.18;;;2.08;;
41661;SDS011;27351;45.992;12.666;2024-02-23T10:47:43;2.85;;;1.52;;
41661;SDS011;27351;45.992;12.666;2024-02-23T10:50:09;7.73;;;2.40;;
41661;SDS011;27351;45.992;12.666;2024-02-23T10:52:35;5.10;;;1.60;;
41661;SDS011;27351;45.992;12.666;2024-02-23T10:55:01;5.50;;;1.60;;
41661;SDS011;27351;45.992;12.666;2024-02-23T10:57:30;10.00;;;1.83;;
41661;SDS011;27351;45.992;12.666;2024-02-23T10:59:57;7.75;;;1.65;;
41661;SDS011;27351;45.992;12.666;2024-02-23T11:02:22;4.78;;;1.83;;
41661;SDS011;27351;45.992;12.666;2024-02-23T11:04:49;3.83;;;1.65;;
41661;SDS011;27351;45.992;12.666;2024-02-23T11:07:15;4.60;;;1.83;;
41661;SDS011;27351;45.992;12.666;2024-02-23T11:09:41;2.25;;;1.17;;
41661;SDS011;27351;45.992;12.666;2024-02-23T11:12:08;6.20;;;1.80;;
41661;SDS011;27351;45.992;12.666;2024-02-23T11:14:38;5.22;;;1.40;;
41661;SDS011;27351;45.992;12.666;2024-02-23T11:17:04;2.78;;;1.10;;
41661;SDS011;27351;45.992;12.666;2024-02-23T11:22:00;2.88;;;1.30;;
41661;SDS011;27351;45.992;12.666;2024-02-23T11:24:28;2.78;;;0.93;;
41661;SDS011;27351;45.992;12.666;2024-02-23T11:26:58;3.60;;;1.40;;
41661;SDS011;27351;45.992;12.666;2024-02-23T11:29:25;3.25;;;1.10;;
41661;SDS011;27351;45.992;12.666;2024-02-23T11:31:51;2.35;;;1.00;;
41661;SDS011;27351;45.992;12.666;2024-02-23T11:34:21;2.65;;;0.90;;
41661;SDS011;27351;45.992;12.666;2024-02-23T11:36:50;2.28;;;1.17;;
41661;SDS011;27351;45.992;12.666;2024-02-23T11:39:16;1.92;;;0.90;;
41661;SDS011;27351;45.992;12.666;2024-02-23T11:41:42;1.58;;;0.70;;
41661;SDS011;27351;45.992;12.666;2024-02-23T11:44:08;2.33;;;0.90;;
41661;SDS011;27351;45.992;12.666;2024-02-23T11:46:34;1.45;;;0.93;;
41661;SDS011;27351;45.992;12.666;2024-02-23T11:49:00;1.83;;;0.70;;
41661;SDS011;27351;45.992;12.666;2024-02-23T11:51:25;2.55;;;1.13;;
41661;SDS011;27351;45.992;12.666;2024-02-23T11:53:53;2.00;;;1.00;;
41661;SDS011;27351;45.992;12.666;2024-02-23T11:56:21;4.20;;;1.75;;
41661;SDS011;27351;45.992;12.666;2024-02-23T11:58:47;6.13;;;2.25;;
41661;SDS011;27351;45.992;12.666;2024-02-23T12:01:13;2.58;;;1.10;;
41661;SDS011;27351;45.992;12.666;2024-02-23T12:03:39;2.17;;;0.90;;
41661;SDS011;27351;45.992;12.666;2024-02-23T12:06:05;2.90;;;1.20;;
41661;SDS011;27351;45.992;12.666;2024-02-23T12:08:32;1.92;;;1.02;;
41661;SDS011;27351;45.992;12.666;2024-02-23T12:11:04;2.33;;;1.00;;
41661;SDS011;27351;45.992;12.666;2024-02-23T12:13:29;1.63;;;0.80;;
41661;SDS011;27351;45.992;12.666;2024-02-23T12:15:55;2.20;;;1.20;;
41661;SDS011;27351;45.992;12.666;2024-02-23T12:18:21;2.00;;;1.00;;
41661;SDS011;27351;45.992;12.666;2024-02-23T12:20:48;2.78;;;1.30;;
41661;SDS011;27351;45.992;12.666;2024-02-23T12:23:14;1.80;;;0.90;;
41661;SDS011;27351;45.992;12.666;2024-02-23T12:25:40;2.63;;;1.27;;
41661;SDS011;27351;45.992;12.666;2024-02-23T12:28:06;2.10;;;1.23;;
41661;SDS011;27351;45.992;12.666;2024-02-23T12:30:31;4.07;;;1.30;;
41661;SDS011;27351;45.992;12.666;2024-02-23T12:33:06;2.57;;;1.70;;
41661;SDS011;27351;45.992;12.666;2024-02-23T12:35:36;1.75;;;1.10;;
41661;SDS011;27351;45.992;12.666;2024-02-23T12:38:01;2.63;;;1.52;;
41661;SDS011;27351;45.992;12.666;2024-02-23T12:40:27;2.28;;;1.02;;
41661;SDS011;27351;45.992;12.666;2024-02-23T12:42:52;1.77;;;0.80;;
41661;SDS011;27351;45.992;12.666;2024-02-23T12:45:18;1.40;;;0.70;;
41661;SDS011;27351;45.992;12.666;2024-02-23T12:47:44;3.20;;;1.65;;
41661;SDS011;27351;45.992;12.666;2024-02-23T12:50:09;2.40;;;0.90;;
41661;SDS011;27351;45.992;12.666;2024-02-23T12:52:36;3.28;;;1.10;;
41661;SDS011;27351;45.992;12.666;2024-02-23T12:55:02;1.85;;;1.23;;
41661;SDS011;27351;45.992;12.666;2024-02-23T12:57:28;3.53;;;1.03;;
41661;SDS011;27351;45.992;12.666;2024-02-23T12:59:54;3.83;;;1.93;;
41661;SDS011;27351;45.992;12.666;2024-02-23T13:02:19;3.57;;;1.20;;
41661;SDS011;27351;45.992;12.666;2024-02-23T13:04:45;2.38;;;0.93;;
41661;SDS011;27351;45.992;12.666;2024-02-23T13:07:17;2.08;;;0.95;;
41661;SDS011;27351;45.992;12.666;2024-02-23T13:09:43;4.03;;;1.15;;
41661;SDS011;27351;45.992;12.666;2024-02-23T13:12:09;1.50;;;0.80;;
41661;SDS011;27351;45.992;12.666;2024-02-23T13:14:34;2.43;;;1.17;;
41661;SDS011;27351;45.992;12.666;2024-02-23T13:17:00;2.47;;;1.17;;
41661;SDS011;27351;45.992;12.666;2024-02-23T13:19:26;2.47;;;1.40;;
41661;SDS011;27351;45.992;12.666;2024-02-23T13:21:51;2.90;;;1.30;;
41661;SDS011;27351;45.992;12.666;2024-02-23T13:24:17;4.40;;;1.70;;
41661;SDS011;27351;45.992;12.666;2024-02-23T13:26:43;2.17;;;1.40;;
41661;SDS011;27351;45.992;12.666;2024-02-23T13:29:10;5.55;;;1.98;;
41661;SDS011;27351;45.992;12.666;2024-02-23T13:31:36;4.50;;;2.08;;
41661;SDS011;27351;45.992;12.666;2024-02-23T13:34:03;4.93;;;2.30;;
41661;SDS011;27351;45.992;12.666;2024-02-23T13:36:29;5.97;;;2.33;;
41661;SDS011;27351;45.992;12.666;2024-02-23T13:38:54;5.77;;;2.50;;
41661;SDS011;27351;45.992;12.666;2024-02-23T13:41:23;6.73;;;3.00;;
41661;SDS011;27351;45.992;12.666;2024-02-23T13:43:49;5.40;;;2.72;;
41661;SDS011;27351;45.992;12.666;2024-02-23T13:46:15;6.75;;;2.90;;
41661;SDS011;27351;45.992;12.666;2024-02-23T13:48:40;6.80;;;3.08;;
41661;SDS011;27351;45.992;12.666;2024-02-23T13:51:06;7.47;;;3.08;;
41661;SDS011;27351;45.992;12.666;2024-02-23T13:53:32;8.27;;;3.17;;
41661;SDS011;27351;45.992;12.666;2024-02-23T13:55:58;7.57;;;3.73;;
41661;SDS011;27351;45.992;12.666;2024-02-23T13:58:26;8.18;;;3.45;;
41661;SDS011;27351;45.992;12.666;2024-02-23T14:00:53;5.68;;;2.20;;
41661;SDS011;27351;45.992;12.666;2024-02-23T14:03:18;7.65;;;2.90;;
41661;SDS011;27351;45.992;12.666;2024-02-23T14:05:44;5.55;;;2.88;;
41661;SDS011;27351;45.992;12.666;2024-02-23T14:08:11;5.80;;;2.63;;
41661;SDS011;27351;45.992;12.666;2024-02-23T14:10:37;7.40;;;3.10;;
41661;SDS011;27351;45.992;12.666;2024-02-23T14:13:02;5.90;;;3.22;;
41661;SDS011;27351;45.992;12.666;2024-02-23T14:15:28;5.45;;;2.60;;
41661;SDS011;27351;45.992;12.666;2024-02-23T14:17:54;9.13;;;3.83;;
41661;SDS011;27351;45.992;12.666;2024-02-23T14:20:19;6.32;;;2.92;;
41661;SDS011;27351;45.992;12.666;2024-02-23T14:22:45;8.05;;;3.10;;
41661;SDS011;27351;45.992;12.666;2024-02-23T14:25:11;10.82;;;3.72;;